sensor_id;sensor_type;location;lat;lon;timestamp;pressure;altitude;pressure_sealevel;temperature;humidity
74268;BME280;62638;51.362;12.472;2023-02-15T00:01:09;101621.88;;;-0.66;100.00
74268;BME280;62638;51.362;12.472;2023-02-15T00:03:35;101621.09;;;-0.70;100.00
74268;BME280;62638;51.362;12.472;2023-02-15T00:06:00;101613.34;;;-0.74;100.00
74268;BME280;62638;51.362;12.472;2023-02-15T00:08:26;101617.97;;;-0.84;100.00
74268;BME280;62638;51.362;12.472;2023-02-15T00:10:51;101617.09;;;-0.84;100.00
74268;BME280;62638;51.362;12.472;2023-02-15T00:13:16;101616.56;;;-0.99;100.00
74268;BME280;62638;51.362;12.472;2023-02-15T00:15:41;101620.59;;;-0.84;100.00
74268;BME280;62638;51.362;12.472;2023-02-15T00:18:07;101612.16;;;-0.98;100.00
74268;BME280;62638;51.362;12.472;2023-02-15T00:20:32;101597.81;;;-1.20;100.00
74268;BME280;62638;51.362;12.472;2023-02-15T00:22:58;101605.44;;;-1.08;100.00
74268;BME280;62638;51.362;12.472;2023-02-15T00:25:23;101606.47;;;-1.15;100.00
74268;BME280;62638;51.362;12.472;2023-02-15T00:27:49;101602.94;;;-1.14;100.00
74268;BME280;62638;51.362;12.472;2023-02-15T00:30:15;101605.44;;;-1.10;100.00
74268;BME280;62638;51.362;12.472;2023-02-15T00:32:41;101599.91;;;-0.99;100.00
74268;BME280;62638;51.362;12.472;2023-02-15T00:35:06;101598.63;;;-1.17;100.00
74268;BME280;62638;51.362;12.472;2023-02-15T00:37:32;101592.56;;;-1.20;100.00
74268;BME280;62638;51.362;12.472;2023-02-15T00:39:57;101581.38;;;-1.28;100.00
74268;BME280;62638;51.362;12.472;2023-02-15T00:42:23;101585.31;;;-1.11;100.00
74268;BME280;62638;51.362;12.472;2023-02-15T00:44:48;101574.66;;;-1.05;100.00
74268;BME280;62638;51.362;12.472;2023-02-15T00:47:13;101574.59;;;-1.03;100.00
74268;BME280;62638;51.362;12.472;2023-02-15T00:49:39;101578.22;;;-1.07;100.00
74268;BME280;62638;51.362;12.472;2023-02-15T00:52:04;101583.91;;;-0.90;100.00
74268;BME280;62638;51.362;12.472;2023-02-15T00:54:29;101581.81;;;-0.77;100.00
74268;BME280;62638;51.362;12.472;2023-02-15T00:56:54;101579.53;;;-0.89;100.00
74268;BME280;62638;51.362;12.472;2023-02-15T00:59:20;101574.50;;;-0.99;100.00
74268;BME280;62638;51.362;12.472;2023-02-15T01:01:45;101576.31;;;-1.01;100.00
74268;BME280;62638;51.362;12.472;2023-02-15T01:04:10;101585.81;;;-0.95;100.00
74268;BME280;62638;51.362;12.472;2023-02-15T01:06:35;101573.78;;;-1.04;100.00
74268;BME280;62638;51.362;12.472;2023-02-15T01:09:01;101572.97;;;-1.07;100.00
74268;BME280;62638;51.362;12.472;2023-02-15T01:11:26;101568.44;;;-1.02;100.00
74268;BME280;62638;51.362;12.472;2023-02-15T01:13:56;101571.94;;;-1.00;100.00
74268;BME280;62638;51.362;12.472;2023-02-15T01:16:24;101561.94;;;-1.21;100.00
74268;BME280;62638;51.362;12.472;2023-02-15T01:18:49;101571.97;;;-1.03;100.00
74268;BME280;62638;51.362;12.472;2023-02-15T01:21:17;101580.03;;;-1.09;100.00
74268;BME280;62638;51.362;12.472;2023-02-15T01:23:43;101584.66;;;-1.20;100.00
74268;BME280;62638;51.362;12.472;2023-02-15T01:26:09;101573.25;;;-1.19;100.00
74268;BME280;62638;51.362;12.472;2023-02-15T01:28:34;101562.00;;;-1.24;100.00
74268;BME280;62638;51.362;12.472;2023-02-15T01:31:07;101564.41;;;-1.15;100.00
74268;BME280;62638;51.362;12.472;2023-02-15T01:33:34;101563.94;;;-1.31;100.00
74268;BME280;62638;51.362;12.472;2023-02-15T01:35:59;101550.13;;;-1.39;100.00
74268;BME280;62638;51.362;12.472;2023-02-15T01:38:24;101565.91;;;-1.41;100.00
74268;BME280;62638;51.362;12.472;2023-02-15T01:40:51;101552.75;;;-1.41;100.00
74268;BME280;62638;51.362;12.472;2023-02-15T01:43:17;101557.81;;;-1.31;100.00
74268;BME280;62638;51.362;12.472;2023-02-15T01:45:46;101553.94;;;-1.52;100.00
74268;BME280;62638;51.362;12.472;2023-02-15T01:48:20;101544.69;;;-1.68;100.00
74268;BME280;62638;51.362;12.472;2023-02-15T01:50:57;101551.03;;;-1.78;100.00
74268;BME280;62638;51.362;12.472;2023-02-15T01:53:31;101555.13;;;-1.67;100.00
74268;BME280;62638;51.362;12.472;2023-02-15T01:56:02;101541.44;;;-1.81;100.00
74268;BME280;62638;51.362;12.472;2023-02-15T01:58:29;101539.94;;;-1.91;100.00
74268;BME280;62638;51.362;12.472;2023-02-15T02:00:57;101530.41;;;-1.95;100.00
74268;BME280;62638;51.362;12.472;2023-02-15T02:03:34;101529.53;;;-1.94;100.00
74268;BME280;62638;51.362;12.472;2023-02-15T02:06:01;101522.63;;;-2.00;100.00
74268;BME280;62638;51.362;12.472;2023-02-15T02:08:27;101518.41;;;-2.07;100.00
74268;BME280;62638;51.362;12.472;2023-02-15T02:10:53;101526.38;;;-2.11;100.00
74268;BME280;62638;51.362;12.472;2023-02-15T02:13:18;101532.75;;;-2.23;100.00
74268;BME280;62638;51.362;12.472;2023-02-15T02:15:57;101521.44;;;-2.25;100.00
74268;BME280;62638;51.362;12.472;2023-02-15T02:21:51;101524.94;;;-2.26;100.00
74268;BME280;62638;51.362;12.472;2023-02-15T02:24:55;101519.63;;;-2.23;100.00
74268;BME280;62638;51.362;12.472;2023-02-15T02:27:36;101526.63;;;-2.23;100.00
74268;BME280;62638;51.362;12.472;2023-02-15T02:38:27;101514.97;;;-2.50;100.00
74268;BME280;62638;51.362;12.472;2023-02-15T02:41:13;101505.53;;;-2.59;100.00
74268;BME280;62638;51.362;12.472;2023-02-15T02:43:51;101510.34;;;-2.38;100.00
74268;BME280;62638;51.362;12.472;2023-02-15T02:46:24;101520.41;;;-2.18;100.00
74268;BME280;62638;51.362;12.472;2023-02-15T02:48:52;101503.13;;;-2.28;100.00
74268;BME280;62638;51.362;12.472;2023-02-15T02:51:18;101502.41;;;-2.35;100.00
74268;BME280;62638;51.362;12.472;2023-02-15T02:53:47;101507.66;;;-2.36;100.00
74268;BME280;62638;51.362;12.472;2023-02-15T02:56:22;101505.19;;;-2.42;100.00
74268;BME280;62638;51.362;12.472;2023-02-15T02:58:55;101496.53;;;-2.47;100.00
74268;BME280;62638;51.362;12.472;2023-02-15T03:01:29;101497.63;;;-2.57;100.00
74268;BME280;62638;51.362;12.472;2023-02-15T03:04:19;101493.03;;;-2.46;100.00
74268;BME280;62638;51.362;12.472;2023-02-15T03:06:52;101494.88;;;-2.51;100.00
74268;BME280;62638;51.362;12.472;2023-02-15T03:09:27;101487.00;;;-2.51;100.00
74268;BME280;62638;51.362;12.472;2023-02-15T03:12:30;101486.97;;;-2.50;100.00
74268;BME280;62638;51.362;12.472;2023-02-15T03:15:19;101484.25;;;-2.45;100.00
74268;BME280;62638;51.362;12.472;2023-02-15T03:17:48;101466.84;;;-2.49;100.00
74268;BME280;62638;51.362;12.472;2023-02-15T03:20:29;101472.00;;;-2.45;100.00
74268;BME280;62638;51.362;12.472;2023-02-15T03:23:16;101472.78;;;-2.41;100.00
74268;BME280;62638;51.362;12.472;2023-02-15T03:25:44;101475.63;;;-2.50;100.00
74268;BME280;62638;51.362;12.472;2023-02-15T03:28:15;101475.19;;;-2.29;100.00
74268;BME280;62638;51.362;12.472;2023-02-15T03:30:45;101476.25;;;-2.39;100.00
74268;BME280;62638;51.362;12.472;2023-02-15T03:33:14;101469.25;;;-2.39;100.00
74268;BME280;62638;51.362;12.472;2023-02-15T03:35:52;101482.38;;;-1.99;100.00
74268;BME280;62638;51.362;12.472;2023-02-15T03:38:29;101466.59;;;-1.62;100.00
74268;BME280;62638;51.362;12.472;2023-02-15T03:40:59;101468.91;;;-1.48;100.00
74268;BME280;62638;51.362;12.472;2023-02-15T03:43:48;101474.94;;;-1.45;100.00
74268;BME280;62638;51.362;12.472;2023-02-15T03:46:25;101458.47;;;-1.51;100.00
74268;BME280;62638;51.362;12.472;2023-02-15T03:49:03;101466.94;;;-1.40;100.00
74268;BME280;62638;51.362;12.472;2023-02-15T03:51:35;101460.25;;;-1.53;100.00
74268;BME280;62638;51.362;12.472;2023-02-15T03:54:12;101465.38;;;-1.47;100.00
74268;BME280;62638;51.362;12.472;2023-02-15T03:56:42;101468.56;;;-1.36;100.00
74268;BME280;62638;51.362;12.472;2023-02-15T03:59:27;101461.47;;;-1.32;100.00
74268;BME280;62638;51.362;12.472;2023-02-15T04:02:16;101453.56;;;-1.31;100.00
74268;BME280;62638;51.362;12.472;2023-02-15T04:04:45;101456.31;;;-1.35;100.00
74268;BME280;62638;51.362;12.472;2023-02-15T04:07:11;101454.59;;;-1.38;100.00
74268;BME280;62638;51.362;12.472;2023-02-15T04:09:37;101455.44;;;-1.36;100.00
74268;BME280;62638;51.362;12.472;2023-02-15T04:12:21;101455.75;;;-1.48;100.00
74268;BME280;62638;51.362;12.472;2023-02-15T04:14:46;101453.28;;;-1.54;100.00
74268;BME280;62638;51.362;12.472;2023-02-15T04:17:30;101457.63;;;-1.53;100.00
74268;BME280;62638;51.362;12.472;2023-02-15T04:19:55;101457.59;;;-1.52;100.00
74268;BME280;62638;51.362;12.472;2023-02-15T04:22:40;101453.50;;;-1.63;100.00
74268;BME280;62638;51.362;12.472;2023-02-15T04:25:24;101459.41;;;-1.55;100.00
74268;BME280;62638;51.362;12.472;2023-02-15T04:27:51;101465.84;;;-1.67;100.00
74268;BME280;62638;51.362;12.472;2023-02-15T04:30:20;101466.16;;;-1.80;100.00
74268;BME280;62638;51.362;12.472;2023-02-15T04:32:46;101451.81;;;-2.03;100.00
74268;BME280;62638;51.362;12.472;2023-02-15T04:35:12;101462.09;;;-1.92;100.00
74268;BME280;62638;51.362;12.472;2023-02-15T04:37:38;101460.31;;;-1.92;100.00
74268;BME280;62638;51.362;12.472;2023-02-15T04:40:05;101453.88;;;-1.78;100.00
74268;BME280;62638;51.362;12.472;2023-02-15T04:42:31;101454.75;;;-1.78;100.00
74268;BME280;62638;51.362;12.472;2023-02-15T04:44:56;101447.34;;;-1.62;100.00
74268;BME280;62638;51.362;12.472;2023-02-15T04:47:22;101441.47;;;-1.38;100.00
74268;BME280;62638;51.362;12.472;2023-02-15T04:49:47;101436.22;;;-1.06;100.00
74268;BME280;62638;51.362;12.472;2023-02-15T04:52:12;101430.22;;;-0.78;100.00
74268;BME280;62638;51.362;12.472;2023-02-15T04:54:38;101431.97;;;-0.79;100.00
74268;BME280;62638;51.362;12.472;2023-02-15T04:57:04;101428.03;;;-0.64;100.00
74268;BME280;62638;51.362;12.472;2023-02-15T04:59:30;101423.59;;;-0.62;100.00
74268;BME280;62638;51.362;12.472;2023-02-15T05:01:56;101418.84;;;-0.50;100.00
74268;BME280;62638;51.362;12.472;2023-02-15T05:04:21;101415.53;;;-0.56;100.00
74268;BME280;62638;51.362;12.472;2023-02-15T05:06:46;101421.97;;;-0.66;100.00
74268;BME280;62638;51.362;12.472;2023-02-15T05:09:12;101409.75;;;-0.69;100.00
74268;BME280;62638;51.362;12.472;2023-02-15T05:11:37;101411.69;;;-0.74;100.00
74268;BME280;62638;51.362;12.472;2023-02-15T05:14:02;101400.84;;;-0.94;100.00
74268;BME280;62638;51.362;12.472;2023-02-15T05:16:28;101400.06;;;-0.98;100.00
74268;BME280;62638;51.362;12.472;2023-02-15T05:18:53;101400.19;;;-1.02;100.00
74268;BME280;62638;51.362;12.472;2023-02-15T05:21:18;101403.06;;;-1.10;100.00
74268;BME280;62638;51.362;12.472;2023-02-15T05:23:44;101413.78;;;-1.17;100.00
74268;BME280;62638;51.362;12.472;2023-02-15T05:26:15;101413.31;;;-1.33;100.00
74268;BME280;62638;51.362;12.472;2023-02-15T05:28:59;101412.94;;;-1.52;100.00
74268;BME280;62638;51.362;12.472;2023-02-15T05:31:24;101401.78;;;-1.60;100.00
74268;BME280;62638;51.362;12.472;2023-02-15T05:33:49;101405.13;;;-1.55;100.00
74268;BME280;62638;51.362;12.472;2023-02-15T05:36:15;101389.56;;;-1.62;100.00
74268;BME280;62638;51.362;12.472;2023-02-15T05:38:40;101400.81;;;-1.56;100.00
74268;BME280;62638;51.362;12.472;2023-02-15T05:41:06;101394.19;;;-1.72;100.00
74268;BME280;62638;51.362;12.472;2023-02-15T05:43:32;101393.59;;;-1.81;100.00
74268;BME280;62638;51.362;12.472;2023-02-15T05:45:58;101396.59;;;-1.63;100.00
74268;BME280;62638;51.362;12.472;2023-02-15T05:48:25;101398.72;;;-1.77;100.00
74268;BME280;62638;51.362;12.472;2023-02-15T05:51:01;101399.81;;;-1.86;100.00
74268;BME280;62638;51.362;12.472;2023-02-15T05:53:28;101400.28;;;-2.05;100.00
74268;BME280;62638;51.362;12.472;2023-02-15T05:55:55;101407.38;;;-2.09;100.00
74268;BME280;62638;51.362;12.472;2023-02-15T05:58:25;101402.03;;;-2.06;100.00
74268;BME280;62638;51.362;12.472;2023-02-15T06:00:50;101406.16;;;-1.96;100.00
74268;BME280;62638;51.362;12.472;2023-02-15T06:03:16;101410.53;;;-1.95;100.00
74268;BME280;62638;51.362;12.472;2023-02-15T06:05:41;101413.88;;;-1.90;100.00
74268;BME280;62638;51.362;12.472;2023-02-15T06:08:06;101424.00;;;-2.10;100.00
74268;BME280;62638;51.362;12.472;2023-02-15T06:10:32;101415.31;;;-2.12;100.00
74268;BME280;62638;51.362;12.472;2023-02-15T06:12:57;101414.47;;;-2.14;100.00
74268;BME280;62638;51.362;12.472;2023-02-15T06:15:22;101416.00;;;-2.04;100.00
74268;BME280;62638;51.362;12.472;2023-02-15T06:17:47;101410.41;;;-1.90;100.00
74268;BME280;62638;51.362;12.472;2023-02-15T06:20:13;101401.63;;;-1.89;100.00
74268;BME280;62638;51.362;12.472;2023-02-15T06:22:38;101412.66;;;-1.75;100.00
74268;BME280;62638;51.362;12.472;2023-02-15T06:25:03;101416.22;;;-1.77;100.00
74268;BME280;62638;51.362;12.472;2023-02-15T06:27:29;101408.47;;;-1.82;100.00
74268;BME280;62638;51.362;12.472;2023-02-15T06:29:54;101404.41;;;-1.95;100.00
74268;BME280;62638;51.362;12.472;2023-02-15T06:32:19;101417.66;;;-2.00;100.00
74268;BME280;62638;51.362;12.472;2023-02-15T06:34:45;101408.81;;;-1.97;100.00
74268;BME280;62638;51.362;12.472;2023-02-15T06:37:10;101412.22;;;-1.94;100.00
74268;BME280;62638;51.362;12.472;2023-02-15T06:39:35;101410.44;;;-1.92;100.00
74268;BME280;62638;51.362;12.472;2023-02-15T06:42:01;101398.50;;;-2.03;100.00
74268;BME280;62638;51.362;12.472;2023-02-15T06:44:26;101412.22;;;-1.92;100.00
74268;BME280;62638;51.362;12.472;2023-02-15T06:46:51;101404.09;;;-1.81;100.00
74268;BME280;62638;51.362;12.472;2023-02-15T06:49:16;101405.88;;;-1.84;100.00
74268;BME280;62638;51.362;12.472;2023-02-15T06:51:42;101411.59;;;-1.68;100.00
74268;BME280;62638;51.362;12.472;2023-02-15T06:54:07;101406.16;;;-1.60;100.00
74268;BME280;62638;51.362;12.472;2023-02-15T06:56:32;101402.38;;;-1.50;100.00
74268;BME280;62638;51.362;12.472;2023-02-15T06:58:57;101404.56;;;-1.33;100.00
74268;BME280;62638;51.362;12.472;2023-02-15T07:01:23;101401.44;;;-1.15;100.00
74268;BME280;62638;51.362;12.472;2023-02-15T07:03:49;101403.44;;;-0.93;100.00
74268;BME280;62638;51.362;12.472;2023-02-15T07:06:14;101399.69;;;-0.84;100.00
74268;BME280;62638;51.362;12.472;2023-02-15T07:08:39;101405.16;;;-0.61;100.00
74268;BME280;62638;51.362;12.472;2023-02-15T07:11:05;101401.63;;;-0.32;100.00
74268;BME280;62638;51.362;12.472;2023-02-15T07:13:50;101399.34;;;-0.15;100.00
74268;BME280;62638;51.362;12.472;2023-02-15T07:16:17;101392.78;;;-0.02;100.00
74268;BME280;62638;51.362;12.472;2023-02-15T07:18:43;101404.09;;;0.28;100.00
74268;BME280;62638;51.362;12.472;2023-02-15T07:21:08;101383.91;;;0.27;100.00
74268;BME280;62638;51.362;12.472;2023-02-15T07:23:37;101398.94;;;0.50;100.00
74268;BME280;62638;51.362;12.472;2023-02-15T07:26:04;101385.94;;;0.70;100.00
74268;BME280;62638;51.362;12.472;2023-02-15T07:28:34;101392.63;;;0.80;100.00
74268;BME280;62638;51.362;12.472;2023-02-15T07:31:03;101382.97;;;0.79;100.00
74268;BME280;62638;51.362;12.472;2023-02-15T07:33:32;101384.97;;;0.98;100.00
74268;BME280;62638;51.362;12.472;2023-02-15T07:35:59;101375.44;;;0.94;100.00
74268;BME280;62638;51.362;12.472;2023-02-15T07:38:27;101381.09;;;1.08;100.00
74268;BME280;62638;51.362;12.472;2023-02-15T07:40:58;101390.22;;;1.21;100.00
74268;BME280;62638;51.362;12.472;2023-02-15T07:43:23;101375.06;;;1.51;100.00
74268;BME280;62638;51.362;12.472;2023-02-15T07:45:48;101373.19;;;1.53;100.00
74268;BME280;62638;51.362;12.472;2023-02-15T07:48:13;101376.47;;;1.59;100.00
74268;BME280;62638;51.362;12.472;2023-02-15T07:50:39;101380.59;;;1.66;100.00
74268;BME280;62638;51.362;12.472;2023-02-15T07:53:04;101369.84;;;1.71;100.00
74268;BME280;62638;51.362;12.472;2023-02-15T07:55:29;101367.50;;;1.63;99.98
74268;BME280;62638;51.362;12.472;2023-02-15T07:57:55;101373.03;;;1.79;99.59
74268;BME280;62638;51.362;12.472;2023-02-15T08:00:21;101376.50;;;1.81;98.96
74268;BME280;62638;51.362;12.472;2023-02-15T08:02:54;101367.81;;;1.99;98.91
74268;BME280;62638;51.362;12.472;2023-02-15T08:05:43;101367.78;;;2.21;97.90
74268;BME280;62638;51.362;12.472;2023-02-15T08:08:10;101374.28;;;2.34;97.49
74268;BME280;62638;51.362;12.472;2023-02-15T08:13:48;101368.78;;;2.39;96.38
74268;BME280;62638;51.362;12.472;2023-02-15T08:16:34;101373.16;;;2.60;96.42
74268;BME280;62638;51.362;12.472;2023-02-15T08:19:03;101366.75;;;2.65;95.95
74268;BME280;62638;51.362;12.472;2023-02-15T08:21:29;101364.50;;;2.77;95.57
74268;BME280;62638;51.362;12.472;2023-02-15T08:23:55;101363.22;;;3.05;94.51
74268;BME280;62638;51.362;12.472;2023-02-15T08:26:22;101357.81;;;3.27;93.84
74268;BME280;62638;51.362;12.472;2023-02-15T08:28:47;101359.66;;;3.25;94.13
74268;BME280;62638;51.362;12.472;2023-02-15T08:31:14;101361.13;;;3.32;93.46
74268;BME280;62638;51.362;12.472;2023-02-15T08:33:40;101361.53;;;3.60;93.17
74268;BME280;62638;51.362;12.472;2023-02-15T08:36:12;101361.69;;;3.57;92.40
74268;BME280;62638;51.362;12.472;2023-02-15T08:38:39;101352.50;;;3.64;92.10
74268;BME280;62638;51.362;12.472;2023-02-15T08:43:42;101356.06;;;3.82;90.19
74268;BME280;62638;51.362;12.472;2023-02-15T08:46:09;101360.22;;;3.88;90.95
74268;BME280;62638;51.362;12.472;2023-02-15T08:48:35;101352.88;;;3.93;89.70
74268;BME280;62638;51.362;12.472;2023-02-15T08:51:18;101354.16;;;4.03;89.03
74268;BME280;62638;51.362;12.472;2023-02-15T08:53:46;101361.22;;;4.38;87.79
74268;BME280;62638;51.362;12.472;2023-02-15T08:56:15;101355.44;;;4.47;88.11
74268;BME280;62638;51.362;12.472;2023-02-15T08:58:40;101345.44;;;4.70;87.14
74268;BME280;62638;51.362;12.472;2023-02-15T09:01:18;101344.41;;;4.72;84.98
74268;BME280;62638;51.362;12.472;2023-02-15T09:03:46;101342.47;;;4.76;85.47
74268;BME280;62638;51.362;12.472;2023-02-15T09:06:12;101347.59;;;4.96;85.53
74268;BME280;62638;51.362;12.472;2023-02-15T09:08:37;101344.94;;;4.96;85.27
74268;BME280;62638;51.362;12.472;2023-02-15T09:11:17;101357.94;;;5.33;84.43
74268;BME280;62638;51.362;12.472;2023-02-15T09:13:48;101363.44;;;5.30;83.11
74268;BME280;62638;51.362;12.472;2023-02-15T09:16:13;101352.47;;;5.52;82.38
74268;BME280;62638;51.362;12.472;2023-02-15T09:18:39;101345.78;;;5.45;83.00
74268;BME280;62638;51.362;12.472;2023-02-15T09:21:11;101350.69;;;5.68;81.76
74268;BME280;62638;51.362;12.472;2023-02-15T09:23:38;101348.00;;;5.84;81.03
74268;BME280;62638;51.362;12.472;2023-02-15T09:26:06;101341.75;;;6.01;79.76
74268;BME280;62638;51.362;12.472;2023-02-15T09:28:32;101341.28;;;6.24;79.93
74268;BME280;62638;51.362;12.472;2023-02-15T09:31:06;101344.94;;;6.07;77.66
74268;BME280;62638;51.362;12.472;2023-02-15T09:33:33;101344.34;;;6.62;78.82
74268;BME280;62638;51.362;12.472;2023-02-15T09:36:00;101341.13;;;6.71;76.94
74268;BME280;62638;51.362;12.472;2023-02-15T09:38:25;101346.28;;;6.88;74.97
74268;BME280;62638;51.362;12.472;2023-02-15T09:41:01;101323.03;;;6.62;75.98
74268;BME280;62638;51.362;12.472;2023-02-15T09:43:44;101341.31;;;6.82;75.36
74268;BME280;62638;51.362;12.472;2023-02-15T09:48:54;101337.19;;;7.20;73.59
74268;BME280;62638;51.362;12.472;2023-02-15T09:51:34;101332.97;;;7.16;73.13
74268;BME280;62638;51.362;12.472;2023-02-15T09:54:23;101342.75;;;7.44;72.48
74268;BME280;62638;51.362;12.472;2023-02-15T09:56:58;101333.28;;;7.67;71.08
74268;BME280;62638;51.362;12.472;2023-02-15T09:59:41;101348.69;;;7.76;71.19
74268;BME280;62638;51.362;12.472;2023-02-15T10:05:13;101349.66;;;7.75;71.43
74268;BME280;62638;51.362;12.472;2023-02-15T10:07:51;101342.97;;;8.09;71.14
74268;BME280;62638;51.362;12.472;2023-02-15T10:15:52;101333.19;;;8.61;67.99
74268;BME280;62638;51.362;12.472;2023-02-15T10:18:36;101337.91;;;8.58;67.19
74268;BME280;62638;51.362;12.472;2023-02-15T10:24:17;101333.63;;;9.19;64.37
74268;BME280;62638;51.362;12.472;2023-02-15T10:26:46;101331.41;;;9.00;63.54
74268;BME280;62638;51.362;12.472;2023-02-15T10:29:34;101328.41;;;8.92;63.35
74268;BME280;62638;51.362;12.472;2023-02-15T10:32:24;101326.69;;;8.91;62.16
74268;BME280;62638;51.362;12.472;2023-02-15T10:40:25;101320.44;;;9.41;62.01
74268;BME280;62638;51.362;12.472;2023-02-15T10:45:40;101322.28;;;10.00;58.87
74268;BME280;62638;51.362;12.472;2023-02-15T10:50:54;101311.69;;;9.63;59.05
74268;BME280;62638;51.362;12.472;2023-02-15T10:56:16;101297.75;;;10.30;59.15
74268;BME280;62638;51.362;12.472;2023-02-15T11:01:19;101294.31;;;9.81;59.35
74268;BME280;62638;51.362;12.472;2023-02-15T11:06:21;101289.56;;;10.32;57.72
74268;BME280;62638;51.362;12.472;2023-02-15T11:08:51;101284.78;;;10.70;56.46
74268;BME280;62638;51.362;12.472;2023-02-15T11:11:29;101275.56;;;10.97;56.86
74268;BME280;62638;51.362;12.472;2023-02-15T11:14:02;101275.06;;;11.47;54.65
74268;BME280;62638;51.362;12.472;2023-02-15T11:16:41;101270.28;;;11.51;54.01
74268;BME280;62638;51.362;12.472;2023-02-15T11:19:22;101269.75;;;11.68;53.44
74268;BME280;62638;51.362;12.472;2023-02-15T11:21:50;101266.13;;;11.58;53.38
74268;BME280;62638;51.362;12.472;2023-02-15T11:24:19;101270.66;;;11.35;53.31
74268;BME280;62638;51.362;12.472;2023-02-15T11:29:37;101258.03;;;10.81;54.68
74268;BME280;62638;51.362;12.472;2023-02-15T11:32:30;101268.09;;;11.56;53.32
74268;BME280;62638;51.362;12.472;2023-02-15T11:35:04;101269.75;;;11.68;53.32
74268;BME280;62638;51.362;12.472;2023-02-15T11:37:58;101266.97;;;12.54;51.96
74268;BME280;62638;51.362;12.472;2023-02-15T11:43:12;101261.84;;;12.30;51.19
74268;BME280;62638;51.362;12.472;2023-02-15T11:45:41;101264.31;;;12.01;51.79
74268;BME280;62638;51.362;12.472;2023-02-15T11:48:12;101249.34;;;11.33;53.13
74268;BME280;62638;51.362;12.472;2023-02-15T11:50:39;101244.88;;;11.77;52.32
74268;BME280;62638;51.362;12.472;2023-02-15T11:53:14;101243.91;;;11.67;52.25
74268;BME280;62638;51.362;12.472;2023-02-15T11:55:43;101239.63;;;11.21;52.82
74268;BME280;62638;51.362;12.472;2023-02-15T12:01:24;101225.25;;;11.11;52.90
74268;BME280;62638;51.362;12.472;2023-02-15T12:04:00;101239.47;;;11.34;52.28
74268;BME280;62638;51.362;12.472;2023-02-15T12:06:45;101236.22;;;11.62;52.27
74268;BME280;62638;51.362;12.472;2023-02-15T12:09:24;101233.38;;;11.32;52.66
74268;BME280;62638;51.362;12.472;2023-02-15T12:11:52;101240.97;;;11.81;52.75
74268;BME280;62638;51.362;12.472;2023-02-15T12:14:17;101238.06;;;11.73;51.72
74268;BME280;62638;51.362;12.472;2023-02-15T12:16:49;101234.78;;;12.22;50.61
74268;BME280;62638;51.362;12.472;2023-02-15T12:19:27;101230.91;;;12.15;50.83
74268;BME280;62638;51.362;12.472;2023-02-15T12:21:53;101227.47;;;11.60;51.96
74268;BME280;62638;51.362;12.472;2023-02-15T12:24:31;101222.38;;;11.35;52.15
74268;BME280;62638;51.362;12.472;2023-02-15T12:27:01;101225.34;;;11.75;52.29
74268;BME280;62638;51.362;12.472;2023-02-15T12:29:30;101220.47;;;11.69;52.57
74268;BME280;62638;51.362;12.472;2023-02-15T12:31:56;101216.75;;;11.92;51.59
74268;BME280;62638;51.362;12.472;2023-02-15T12:34:26;101215.59;;;12.26;51.30
74268;BME280;62638;51.362;12.472;2023-02-15T12:36:55;101216.31;;;12.28;50.37
74268;BME280;62638;51.362;12.472;2023-02-15T12:39:27;101217.16;;;12.50;50.30
74268;BME280;62638;51.362;12.472;2023-02-15T12:44:22;101226.25;;;12.58;49.70
74268;BME280;62638;51.362;12.472;2023-02-15T12:46:59;101226.22;;;12.79;48.09
74268;BME280;62638;51.362;12.472;2023-02-15T12:49:26;101223.47;;;12.69;48.66
74268;BME280;62638;51.362;12.472;2023-02-15T12:56:47;101206.81;;;12.45;49.11
74268;BME280;62638;51.362;12.472;2023-02-15T12:59:13;101209.38;;;12.47;48.88
74268;BME280;62638;51.362;12.472;2023-02-15T13:01:45;101205.19;;;12.33;49.04
74268;BME280;62638;51.362;12.472;2023-02-15T13:04:28;101204.84;;;12.26;49.43
74268;BME280;62638;51.362;12.472;2023-02-15T13:07:02;101200.00;;;12.41;48.69
74268;BME280;62638;51.362;12.472;2023-02-15T13:12:21;101200.38;;;12.88;47.32
74268;BME280;62638;51.362;12.472;2023-02-15T13:14:50;101192.03;;;12.60;48.13
74268;BME280;62638;51.362;12.472;2023-02-15T13:17:19;101188.63;;;12.89;48.12
74268;BME280;62638;51.362;12.472;2023-02-15T13:19:48;101187.38;;;12.93;47.17
74268;BME280;62638;51.362;12.472;2023-02-15T13:22:20;101177.66;;;12.71;47.91
74268;BME280;62638;51.362;12.472;2023-02-15T13:24:50;101172.09;;;12.93;48.17
74268;BME280;62638;51.362;12.472;2023-02-15T13:27:19;101170.34;;;12.83;46.88
74268;BME280;62638;51.362;12.472;2023-02-15T13:29:49;101166.34;;;12.67;46.93
74268;BME280;62638;51.362;12.472;2023-02-15T13:32:28;101167.81;;;12.51;46.79
74268;BME280;62638;51.362;12.472;2023-02-15T13:34:58;101172.78;;;12.55;46.80
74268;BME280;62638;51.362;12.472;2023-02-15T13:40:28;101160.69;;;12.70;46.22
74268;BME280;62638;51.362;12.472;2023-02-15T13:43:06;101156.28;;;12.69;45.84
74268;BME280;62638;51.362;12.472;2023-02-15T13:45:56;101158.31;;;12.87;45.74
74268;BME280;62638;51.362;12.472;2023-02-15T13:48:41;101161.59;;;12.60;46.97
74268;BME280;62638;51.362;12.472;2023-02-15T13:51:20;101157.88;;;12.82;47.30
74268;BME280;62638;51.362;12.472;2023-02-15T13:56:41;101155.91;;;13.33;46.51
74268;BME280;62638;51.362;12.472;2023-02-15T14:02:37;101141.88;;;12.70;46.01
74268;BME280;62638;51.362;12.472;2023-02-15T14:05:19;101151.75;;;12.70;46.57
74268;BME280;62638;51.362;12.472;2023-02-15T14:07:56;101161.28;;;12.84;46.47
74268;BME280;62638;51.362;12.472;2023-02-15T14:10:34;101153.31;;;13.03;46.53